createdAt,value
2023-02-03T00:00:36.318Z,4.40
2023-02-03T00:03:03.062Z,4.40
2023-02-03T00:05:30.338Z,4.40
2023-02-03T00:07:57.078Z,4.30
2023-02-03T00:10:24.174Z,4.40
2023-02-03T00:12:54.856Z,4.40
2023-02-03T00:15:23.130Z,4.30
2023-02-03T00:17:49.836Z,4.30
2023-02-03T00:20:16.783Z,4.30
2023-02-03T00:22:43.503Z,4.30
2023-02-03T00:25:10.409Z,4.30
2023-02-03T00:27:37.096Z,4.30
2023-02-03T00:30:04.619Z,4.30
2023-02-03T00:32:31.427Z,4.30
2023-02-03T00:34:58.238Z,4.30
2023-02-03T00:37:24.996Z,4.30
2023-02-03T00:39:51.756Z,4.30
2023-02-03T00:42:18.442Z,4.30
2023-02-03T00:44:45.118Z,4.30
2023-02-03T00:47:11.892Z,4.30
2023-02-03T00:49:38.564Z,4.30
2023-02-03T00:52:05.555Z,4.30
2023-02-03T00:54:33.702Z,4.30
2023-02-03T00:57:00.625Z,4.30
2023-02-03T00:59:27.388Z,4.30
2023-02-03T01:01:54.095Z,4.30
2023-02-03T01:04:20.771Z,4.30
2023-02-03T01:06:47.407Z,4.30
2023-02-03T01:09:14.034Z,4.40
2023-02-03T01:11:40.741Z,4.30
2023-02-03T01:14:07.746Z,4.30
2023-02-03T01:16:38.019Z,4.30
2023-02-03T01:19:05.018Z,4.40
2023-02-03T01:21:32.328Z,4.40
2023-02-03T01:23:59.872Z,4.40
2023-02-03T01:26:26.764Z,4.40
2023-02-03T01:29:00.390Z,4.40
2023-02-03T01:31:34.887Z,4.40
2023-02-03T01:34:01.735Z,4.40
2023-02-03T01:36:30.069Z,4.40
2023-02-03T01:38:56.717Z,4.40
2023-02-03T01:41:29.230Z,4.40
2023-02-03T01:43:57.818Z,4.40
2023-02-03T01:46:37.087Z,4.40
2023-02-03T01:49:24.006Z,4.40
2023-02-03T01:51:51.042Z,4.40
2023-02-03T01:54:24.257Z,4.40
2023-02-03T01:56:54.725Z,4.10
2023-02-03T01:59:22.393Z,4.40
2023-02-03T02:01:49.736Z,4.40
2023-02-03T02:04:16.543Z,4.30
2023-02-03T02:06:43.373Z,4.30
2023-02-03T02:09:10.061Z,4.30
2023-02-03T02:11:37.582Z,4.30
2023-02-03T02:14:04.292Z,4.30
2023-02-03T02:17:20.740Z,4.30
2023-02-03T02:20:10.002Z,4.30
2023-02-03T02:22:51.679Z,4.20
2023-02-03T02:25:47.001Z,4.20
2023-02-03T02:28:36.648Z,4.20
2023-02-03T02:31:34.404Z,4.20
2023-02-03T02:34:04.179Z,4.20
2023-02-03T02:36:44.205Z,4.20
2023-02-03T02:39:16.333Z,4.20
2023-02-03T02:41:46.978Z,4.20
2023-02-03T02:44:30.683Z,4.20
2023-02-03T02:47:00.853Z,4.20
2023-02-03T02:49:34.775Z,4.20
2023-02-03T02:52:04.634Z,4.20
2023-02-03T02:54:33.049Z,4.20
2023-02-03T02:57:05.242Z,4.20
2023-02-03T02:59:32.375Z,4.20
2023-02-03T03:01:59.071Z,4.20
2023-02-03T03:04:28.499Z,4.20
2023-02-03T03:07:30.560Z,4.20
2023-02-03T03:10:01.247Z,4.30
2023-02-03T03:12:34.591Z,4.30
2023-02-03T03:15:24.262Z,4.30
2023-02-03T03:18:01.572Z,4.30
2023-02-03T03:20:28.981Z,4.40
2023-02-03T03:23:00.399Z,4.40
2023-02-03T03:25:41.097Z,4.40
2023-02-03T03:28:15.615Z,4.40
2023-02-03T03:30:42.480Z,4.40
2023-02-03T03:33:09.799Z,4.40
2023-02-03T03:35:45.783Z,4.40
2023-02-03T03:38:22.049Z,4.40
2023-02-03T03:40:59.705Z,4.40
2023-02-03T03:43:31.283Z,4.50
2023-02-03T03:46:23.654Z,4.40
2023-02-03T03:48:54.402Z,4.40
2023-02-03T03:51:48.402Z,4.50
2023-02-03T03:54:18.242Z,4.50
2023-02-03T03:56:54.970Z,4.50
2023-02-03T03:59:23.042Z,4.50
2023-02-03T04:01:51.153Z,4.40
2023-02-03T04:04:18.497Z,4.40
2023-02-03T04:06:45.209Z,4.40
2023-02-03T04:09:11.891Z,4.40
2023-02-03T04:11:57.080Z,4.40
2023-02-03T04:14:23.742Z,4.30
2023-02-03T04:16:50.461Z,4.30
2023-02-03T04:19:17.106Z,4.30
2023-02-03T04:21:43.826Z,4.30
2023-02-03T04:24:11.931Z,4.30
2023-02-03T04:26:38.862Z,4.30
2023-02-03T04:29:05.571Z,4.30
2023-02-03T04:31:32.608Z,4.30
2023-02-03T04:33:59.398Z,4.30
2023-02-03T04:36:26.208Z,4.30
2023-02-03T04:38:53.000Z,4.30
2023-02-03T04:41:19.987Z,4.30
2023-02-03T04:43:46.677Z,4.30
2023-02-03T04:46:13.485Z,4.30
2023-02-03T04:48:40.198Z,4.30
2023-02-03T04:51:08.623Z,4.30
2023-02-03T04:53:35.900Z,4.30
2023-02-03T04:56:02.804Z,4.30
2023-02-03T04:58:29.689Z,4.20
2023-02-03T05:00:56.496Z,4.30
2023-02-03T05:03:25.824Z,4.20
2023-02-03T05:05:53.110Z,4.20
2023-02-03T05:08:20.202Z,4.20
2023-02-03T05:10:46.893Z,4.20
2023-02-03T05:13:13.574Z,4.20
2023-02-03T05:15:40.232Z,4.20
2023-02-03T05:18:07.150Z,4.20
2023-02-03T05:20:33.877Z,4.20
2023-02-03T05:23:01.302Z,4.30
2023-02-03T05:25:28.072Z,4.30
2023-02-03T05:27:54.760Z,4.30
2023-02-03T05:30:21.668Z,4.30
2023-02-03T05:32:49.392Z,4.30
2023-02-03T05:35:16.165Z,4.30
2023-02-03T05:37:45.476Z,4.30
2023-02-03T05:40:31.788Z,4.30
2023-02-03T05:42:58.585Z,4.40
2023-02-03T05:45:25.445Z,4.40
2023-02-03T05:47:52.265Z,4.40
2023-02-03T05:50:19.136Z,4.40
2023-02-03T05:52:46.272Z,4.40
2023-02-03T05:55:13.080Z,4.40
2023-02-03T05:57:39.863Z,4.50
2023-02-03T06:00:07.718Z,4.50
2023-02-03T06:02:34.440Z,4.50
2023-02-03T06:05:01.114Z,4.50
2023-02-03T06:07:27.836Z,4.50
2023-02-03T06:09:54.480Z,4.50
2023-02-03T06:12:21.197Z,4.60
2023-02-03T06:14:47.874Z,4.60
2023-02-03T06:17:14.584Z,4.60
2023-02-03T06:19:41.228Z,4.60
2023-02-03T06:22:08.016Z,4.60
2023-02-03T06:24:34.660Z,4.60
2023-02-03T06:27:01.334Z,4.60
2023-02-03T06:29:27.989Z,4.60
2023-02-03T06:31:54.774Z,4.50
2023-02-03T06:34:21.570Z,4.50
2023-02-03T06:36:49.131Z,4.50
2023-02-03T06:39:16.005Z,4.40
2023-02-03T06:41:42.688Z,4.40
2023-02-03T06:44:09.547Z,4.40
2023-02-03T06:46:36.320Z,4.40
2023-02-03T06:49:03.192Z,4.40
2023-02-03T06:51:29.884Z,4.40
2023-02-03T06:53:56.570Z,4.40
2023-02-03T06:56:23.251Z,4.40
2023-02-03T06:58:49.891Z,4.40
2023-02-03T07:01:16.758Z,4.40
2023-02-03T07:03:43.624Z,4.40
2023-02-03T07:06:10.319Z,4.40
2023-02-03T07:08:37.101Z,4.40
2023-02-03T07:11:03.927Z,4.40
2023-02-03T07:13:30.716Z,4.40
2023-02-03T07:15:57.444Z,4.30
2023-02-03T07:21:13.019Z,4.30
2023-02-03T07:23:40.161Z,4.30
2023-02-03T07:26:08.050Z,4.30
2023-02-03T07:28:35.951Z,4.30
2023-02-03T07:31:04.836Z,4.30
2023-02-03T07:33:32.165Z,4.30
2023-02-03T07:36:00.257Z,4.30
2023-02-03T07:38:28.097Z,4.30
2023-02-03T07:40:54.778Z,4.30
2023-02-03T07:43:21.469Z,4.30
2023-02-03T07:45:48.126Z,4.30
2023-02-03T07:48:14.835Z,4.30
2023-02-03T07:50:42.030Z,4.30
2023-02-03T07:53:11.573Z,4.30
2023-02-03T07:55:39.899Z,4.30
2023-02-03T07:58:07.375Z,4.40
2023-02-03T08:00:34.762Z,4.30
2023-02-03T08:03:01.466Z,4.30
2023-02-03T08:05:29.415Z,4.30
2023-02-03T08:07:56.783Z,4.30
2023-02-03T08:10:23.483Z,4.40
2023-02-03T08:12:53.606Z,4.30
2023-02-03T08:15:20.423Z,4.40
2023-02-03T08:17:48.781Z,4.40
2023-02-03T08:20:16.457Z,4.40
2023-02-03T08:22:43.158Z,4.40
2023-02-03T08:25:10.409Z,4.40
2023-02-03T08:27:37.542Z,4.40
2023-02-03T08:30:05.460Z,4.40
2023-02-03T08:32:33.199Z,4.40
2023-02-03T08:34:59.888Z,4.40
2023-02-03T08:37:26.856Z,4.40
2023-02-03T08:39:53.825Z,4.40
2023-02-03T08:42:20.663Z,4.40
2023-02-03T08:44:48.848Z,4.40
2023-02-03T08:47:16.069Z,4.40
2023-02-03T08:49:42.965Z,4.40
2023-02-03T08:52:11.696Z,4.50
2023-02-03T08:54:38.879Z,4.50
2023-02-03T08:57:06.111Z,4.50
2023-02-03T08:59:36.118Z,4.50
2023-02-03T09:02:07.698Z,4.50
2023-02-03T09:04:34.669Z,4.50
2023-02-03T09:07:16.885Z,4.50
2023-02-03T09:09:43.627Z,4.80
2023-02-03T09:12:12.280Z,4.50
2023-02-03T09:14:39.186Z,4.50
2023-02-03T09:17:08.279Z,4.50
2023-02-03T09:19:36.548Z,4.60
2023-02-03T09:22:03.642Z,4.60
2023-02-03T09:24:30.732Z,4.50
2023-02-03T09:26:57.525Z,4.50
2023-02-03T09:29:24.214Z,4.50
2023-02-03T09:31:53.827Z,4.60
2023-02-03T09:34:21.238Z,4.60
2023-02-03T09:36:48.499Z,4.60
2023-02-03T09:39:15.554Z,4.60
2023-02-03T09:41:54.092Z,4.60
2023-02-03T09:44:36.159Z,4.60
2023-02-03T09:47:06.786Z,4.60
2023-02-03T09:49:52.257Z,4.70
2023-02-03T09:52:25.201Z,4.70
2023-02-03T09:55:20.790Z,4.70
2023-02-03T09:58:00.301Z,4.70
2023-02-03T10:00:51.820Z,4.70
2023-02-03T10:03:43.166Z,4.80
2023-02-03T10:06:21.902Z,4.80
2023-02-03T10:09:03.537Z,4.80
2023-02-03T10:11:38.894Z,4.90
2023-02-03T10:14:36.695Z,4.90
2023-02-03T10:17:19.771Z,4.90
2023-02-03T10:19:49.344Z,4.80
2023-02-03T10:22:20.266Z,4.80
2023-02-03T10:24:52.107Z,4.90
2023-02-03T10:27:21.127Z,4.90
2023-02-03T10:30:27.447Z,5.00
2023-02-03T10:33:02.403Z,5.20
2023-02-03T10:35:38.451Z,5.10
2023-02-03T10:38:06.549Z,5.10
2023-02-03T10:40:33.259Z,5.00
2023-02-03T10:43:18.568Z,4.90
2023-02-03T10:45:45.332Z,4.80
2023-02-03T10:48:16.642Z,4.80
2023-02-03T10:50:48.193Z,4.80
2023-02-03T10:53:35.055Z,4.70
2023-02-03T10:56:05.672Z,4.70
2023-02-03T10:58:34.762Z,4.70
2023-02-03T11:01:21.866Z,4.80
2023-02-03T11:04:03.880Z,4.80
2023-02-03T11:06:32.266Z,4.80
2023-02-03T11:08:59.278Z,4.80
2023-02-03T11:11:32.500Z,4.90
2023-02-03T11:14:02.408Z,4.90
2023-02-03T11:16:33.738Z,4.90
2023-02-03T11:19:00.441Z,5.00
2023-02-03T11:21:39.015Z,5.10
2023-02-03T11:24:30.253Z,5.10
2023-02-03T11:27:15.680Z,5.10
2023-02-03T11:29:44.754Z,5.00
2023-02-03T11:32:18.718Z,5.00
2023-02-03T11:35:27.412Z,5.00
2023-02-03T11:37:57.529Z,5.00
2023-02-03T11:40:29.056Z,5.00
2023-02-03T11:42:55.920Z,5.00
2023-02-03T11:45:39.395Z,5.00
2023-02-03T11:48:23.860Z,5.00
2023-02-03T11:51:04.539Z,5.00
2023-02-03T11:53:56.949Z,5.00
2023-02-03T11:56:54.708Z,4.90
2023-02-03T11:59:31.153Z,4.90
2023-02-03T12:02:26.227Z,4.90
2023-02-03T12:04:55.983Z,5.00
2023-02-03T12:07:32.400Z,5.00
2023-02-03T12:10:18.048Z,5.00
2023-02-03T12:13:23.203Z,5.10
2023-02-03T12:16:08.876Z,5.10
2023-02-03T12:18:59.109Z,5.10
2023-02-03T12:21:45.616Z,5.20
2023-02-03T12:24:39.210Z,5.20
2023-02-03T12:27:25.606Z,5.30
2023-02-03T12:30:12.573Z,5.40
2023-02-03T12:32:48.086Z,5.40
2023-02-03T12:35:28.947Z,5.40
2023-02-03T12:38:18.280Z,5.40
2023-02-03T12:40:49.521Z,5.50
2023-02-03T12:43:49.196Z,5.50
2023-02-03T12:46:26.439Z,5.50
2023-02-03T12:49:05.129Z,5.50
2023-02-03T12:51:39.867Z,5.50
2023-02-03T12:54:18.822Z,5.50
2023-02-03T12:56:47.648Z,5.60
2023-02-03T12:59:19.970Z,5.60
2023-02-03T13:01:54.980Z,5.60
2023-02-03T13:04:35.140Z,5.50
2023-02-03T13:07:11.562Z,5.40
2023-02-03T13:09:42.029Z,5.30
2023-02-03T13:12:20.840Z,5.30
2023-02-03T13:14:51.720Z,5.30
2023-02-03T13:17:25.819Z,5.30
2023-02-03T13:19:58.514Z,5.20
2023-02-03T13:22:25.264Z,5.20
2023-02-03T13:25:01.222Z,5.20
2023-02-03T13:27:42.419Z,5.20
2023-02-03T13:30:18.219Z,5.20
2023-02-03T13:33:23.163Z,5.20
2023-02-03T13:36:15.385Z,5.20
2023-02-03T13:39:07.334Z,5.10
2023-02-03T13:41:42.721Z,5.10
2023-02-03T13:44:14.687Z,5.00
2023-02-03T13:46:42.044Z,5.00
2023-02-03T13:49:09.407Z,5.00
2023-02-03T13:51:38.384Z,5.00
2023-02-03T13:54:21.712Z,5.00
2023-02-03T13:56:57.508Z,5.00
2023-02-03T13:59:31.919Z,5.00
2023-02-03T14:02:23.621Z,4.90
2023-02-03T14:05:32.211Z,4.90
2023-02-03T14:07:59.069Z,4.90
2023-02-03T14:10:25.768Z,4.80
2023-02-03T14:12:52.495Z,4.80
2023-02-03T14:15:25.856Z,4.80
2023-02-03T14:18:04.168Z,4.90
2023-02-03T14:20:51.237Z,4.80
2023-02-03T14:23:22.760Z,4.80
2023-02-03T14:25:52.877Z,4.80
2023-02-03T14:28:41.043Z,4.80
2023-02-03T14:31:20.571Z,4.80
2023-02-03T14:33:57.295Z,4.80
2023-02-03T14:36:37.933Z,4.80
2023-02-03T14:39:20.164Z,4.80
2023-02-03T14:42:02.350Z,4.80
2023-02-03T14:45:01.893Z,4.80
2023-02-03T14:47:34.786Z,4.80
2023-02-03T14:50:39.462Z,4.80
2023-02-03T14:53:21.474Z,4.80
2023-02-03T14:56:11.423Z,4.80
2023-02-03T14:59:04.690Z,4.80
2023-02-03T15:01:37.717Z,4.80
2023-02-03T15:04:13.655Z,4.80
2023-02-03T15:06:46.850Z,4.80
2023-02-03T15:09:43.211Z,4.80
2023-02-03T15:12:23.956Z,4.80
2023-02-03T15:14:50.695Z,4.80
2023-02-03T15:17:27.131Z,4.80
2023-02-03T15:19:54.472Z,4.80
2023-02-03T15:22:27.358Z,4.80
2023-02-03T15:24:57.137Z,4.80
2023-02-03T15:27:28.786Z,4.80
2023-02-03T15:29:59.008Z,4.80
2023-02-03T15:32:30.967Z,4.80
2023-02-03T15:34:58.893Z,4.80
2023-02-03T15:37:41.931Z,4.80
2023-02-03T15:40:20.074Z,4.80
2023-02-03T15:42:53.921Z,4.80
2023-02-03T15:45:28.269Z,4.80
2023-02-03T15:48:12.684Z,4.80
2023-02-03T15:50:47.566Z,4.80
2023-02-03T15:53:46.678Z,4.80
2023-02-03T15:56:37.557Z,4.80
2023-02-03T15:59:05.656Z,4.80
2023-02-03T16:01:32.561Z,4.80
2023-02-03T16:03:59.522Z,4.80
2023-02-03T16:06:39.147Z,4.80
2023-02-03T16:09:07.461Z,4.80
2023-02-03T16:11:39.179Z,4.80
2023-02-03T16:14:09.161Z,4.80
2023-02-03T16:16:49.384Z,4.80
2023-02-03T16:19:23.370Z,4.80
2023-02-03T16:21:50.173Z,4.80
2023-02-03T16:24:32.360Z,4.80
2023-02-03T16:27:27.676Z,4.80
2023-02-03T16:30:23.109Z,4.80
2023-02-03T16:33:27.528Z,4.80
2023-02-03T16:36:13.880Z,4.80
2023-02-03T16:39:06.326Z,4.80
2023-02-03T16:41:52.198Z,4.80
2023-02-03T16:44:37.966Z,4.80
2023-02-03T16:47:40.236Z,4.80
2023-02-03T16:50:37.903Z,4.80
2023-02-03T16:53:05.749Z,4.80
2023-02-03T16:55:32.637Z,4.80
2023-02-03T16:57:59.386Z,4.80
2023-02-03T17:00:26.224Z,4.80
2023-02-03T17:02:52.925Z,4.80
2023-02-03T17:05:20.111Z,4.80
2023-02-03T17:07:47.110Z,4.80
2023-02-03T17:10:14.077Z,4.80
2023-02-03T17:12:40.943Z,4.80
2023-02-03T17:15:08.408Z,4.80
2023-02-03T17:17:35.245Z,4.80
2023-02-03T17:20:02.184Z,4.90
2023-02-03T17:22:30.389Z,4.80
2023-02-03T17:24:57.096Z,4.90
2023-02-03T17:27:23.860Z,4.90
2023-02-03T17:29:50.507Z,4.90
2023-02-03T17:32:17.379Z,4.90
2023-02-03T17:34:44.532Z,4.90
2023-02-03T17:37:11.461Z,4.90
2023-02-03T17:53:19.874Z,5.00
2023-02-03T17:58:15.189Z,5.00
2023-02-03T18:00:41.886Z,5.00
2023-02-03T18:03:09.061Z,5.00
2023-02-03T18:05:37.211Z,5.00
2023-02-03T18:08:09.260Z,5.00
2023-02-03T18:10:43.205Z,5.00
2023-02-03T18:13:10.040Z,5.10
2023-02-03T18:15:38.496Z,5.10
2023-02-03T18:18:05.863Z,5.10
2023-02-03T18:20:32.697Z,5.10
2023-02-03T18:22:59.365Z,5.10
2023-02-03T18:25:26.059Z,5.10
2023-02-03T18:27:52.817Z,5.10
2023-02-03T18:30:21.572Z,5.10
2023-02-03T18:32:52.627Z,5.10
2023-02-03T18:35:19.475Z,5.10
2023-02-03T18:37:46.255Z,5.10
2023-02-03T18:40:12.995Z,5.10
2023-02-03T18:42:39.734Z,5.10
2023-02-03T18:45:07.117Z,5.20
2023-02-03T18:47:34.252Z,5.20
2023-02-03T18:50:01.065Z,5.20
2023-02-03T18:52:27.817Z,5.20
2023-02-03T18:54:54.549Z,5.20
2023-02-03T18:57:22.588Z,5.20
2023-02-03T18:59:49.669Z,5.20
2023-02-03T19:02:16.581Z,5.20
2023-02-03T19:04:43.502Z,5.20
2023-02-03T19:07:12.276Z,5.20
2023-02-03T19:09:39.968Z,5.20
2023-02-03T19:12:07.988Z,5.20
2023-02-03T19:14:35.351Z,5.20
2023-02-03T19:17:03.041Z,5.20
2023-02-03T19:19:29.776Z,5.20
2023-02-03T19:21:58.371Z,5.20
2023-02-03T19:24:26.745Z,5.20
2023-02-03T19:26:54.244Z,5.20
2023-02-03T19:29:20.968Z,5.20
2023-02-03T19:31:47.833Z,5.30
2023-02-03T19:34:18.339Z,5.20
2023-02-03T19:36:47.056Z,5.20
2023-02-03T19:39:14.281Z,5.20
2023-02-03T19:41:41.153Z,5.20
2023-02-03T19:44:08.007Z,5.20
2023-02-03T19:46:37.934Z,5.20
2023-02-03T19:49:06.634Z,5.20
2023-02-03T19:51:34.181Z,5.20
2023-02-03T19:54:01.312Z,5.20
2023-02-03T19:56:28.252Z,5.20
2023-02-03T19:58:55.005Z,5.20
2023-02-03T20:01:23.087Z,5.20
2023-02-03T20:03:50.626Z,5.40
2023-02-03T20:06:18.061Z,5.20
2023-02-03T20:08:44.756Z,5.20
2023-02-03T20:11:11.521Z,5.20
2023-02-03T20:13:38.299Z,5.40
2023-02-03T20:16:05.256Z,5.20
2023-02-03T20:18:31.983Z,5.10
2023-02-03T20:20:59.618Z,5.10
2023-02-03T20:23:26.354Z,5.10
2023-02-03T20:25:54.559Z,5.10
2023-02-03T20:28:22.877Z,5.10
2023-02-03T20:30:51.785Z,5.40
2023-02-03T20:33:18.809Z,5.10
2023-02-03T20:35:45.743Z,5.10
2023-02-03T20:38:13.358Z,5.10
2023-02-03T20:40:40.093Z,5.10
2023-02-03T20:43:15.731Z,5.10
2023-02-03T20:45:42.688Z,5.10
2023-02-03T20:48:11.606Z,5.10
2023-02-03T20:50:42.584Z,5.10
2023-02-03T20:53:14.314Z,5.20
2023-02-03T20:55:41.398Z,5.10
2023-02-03T20:58:41.229Z,5.20
2023-02-03T21:01:16.416Z,5.20
2023-02-03T21:04:02.417Z,5.10
2023-02-03T21:06:30.619Z,5.20
2023-02-03T21:09:03.429Z,5.20
2023-02-03T21:11:30.865Z,5.20
2023-02-03T21:13:58.312Z,5.20
2023-02-03T21:16:35.418Z,5.20
2023-02-03T21:19:02.674Z,5.20
2023-02-03T21:21:34.723Z,5.20
2023-02-03T21:24:01.460Z,5.30
2023-02-03T21:26:30.569Z,5.30
2023-02-03T21:28:59.224Z,5.30
2023-02-03T21:31:31.706Z,5.30
2023-02-03T21:34:00.709Z,5.30
2023-02-03T21:36:30.934Z,5.40
2023-02-03T21:39:00.003Z,5.40
2023-02-03T21:41:33.015Z,5.40
2023-02-03T21:44:00.684Z,5.40
2023-02-03T21:46:29.740Z,5.40
2023-02-03T21:49:03.775Z,5.40
2023-02-03T21:51:33.842Z,5.50
2023-02-03T21:54:02.533Z,5.50
2023-02-03T21:56:41.575Z,5.50
2023-02-03T21:59:28.485Z,5.50
2023-02-03T22:01:57.769Z,5.50
2023-02-03T22:04:29.093Z,5.50
2023-02-03T22:06:56.341Z,5.50
2023-02-03T22:09:25.130Z,5.50
2023-02-03T22:11:52.517Z,5.50
2023-02-03T22:14:22.959Z,5.50
2023-02-03T22:16:50.242Z,5.50
2023-02-03T22:19:17.552Z,5.50
2023-02-03T22:21:44.795Z,5.50
2023-02-03T22:24:11.614Z,5.50
2023-02-03T22:26:38.397Z,5.50
2023-02-03T22:29:05.648Z,5.50
2023-02-03T22:31:32.689Z,5.50
2023-02-03T22:33:59.493Z,5.50
2023-02-03T22:36:26.272Z,5.50
2023-02-03T22:38:53.115Z,5.50
2023-02-03T22:41:20.882Z,5.50
2023-02-03T22:43:48.029Z,5.50
2023-02-03T22:46:14.791Z,5.60
2023-02-03T22:48:41.612Z,5.60
2023-02-03T22:51:08.801Z,5.60
2023-02-03T22:53:35.576Z,5.60
2023-02-03T22:56:02.449Z,5.60
2023-02-03T22:58:29.154Z,5.60
2023-02-03T23:00:56.555Z,5.60
2023-02-03T23:03:26.924Z,5.60
2023-02-03T23:05:53.767Z,5.60
2023-02-03T23:08:20.630Z,5.60
2023-02-03T23:10:48.213Z,5.60
2023-02-03T23:13:14.940Z,5.60
2023-02-03T23:15:41.672Z,5.60
2023-02-03T23:18:08.464Z,5.60
2023-02-03T23:20:35.145Z,5.60
2023-02-03T23:23:01.854Z,5.60
2023-02-03T23:25:28.578Z,5.60
2023-02-03T23:27:55.531Z,5.60
2023-02-03T23:30:22.359Z,5.60
2023-02-03T23:32:49.249Z,5.60
2023-02-03T23:35:34.605Z,5.60
2023-02-03T23:38:01.332Z,5.60
2023-02-03T23:40:28.250Z,5.60
2023-02-03T23:42:55.250Z,5.60
2023-02-03T23:45:22.007Z,5.60
2023-02-03T23:47:48.704Z,5.60
2023-02-03T23:50:17.177Z,5.60
2023-02-03T23:52:43.911Z,5.60
2023-02-03T23:55:13.103Z,5.60
2023-02-03T23:57:42.535Z,5.60
